Time;durP1;ratioP1;P1;durP2;ratioP2;P2;SDS_P1;SDS_P2;PMS_P1;PMS_P2;Temp;Humidity;BMP_temperature;BMP_pressure;BME280_temperature;BME280_humidity;BME280_pressure;Samples;Min_cycle;Max_cycle;Signal;HPM_P1;HPM_P2
2023/04/12 00:00:26;;;;;;;6.07;3.28;;;;;;;2.01;100.00;100323.50;5050360;28;20029;-78
2023/04/12 00:02:53;;;;;;;8.98;4.10;;;;;;;2.00;100.00;100332.19;5051301;28;20096;-78
2023/04/12 00:05:25;;;;;;;5.10;2.90;;;;;;;2.02;100.00;100336.59;5049030;28;20116;-78
2023/04/12 00:07:52;;;;;;;7.40;3.10;;;;;;;1.93;100.00;100319.00;5051636;28;20048;-78
2023/04/12 00:10:18;;;;;;;7.53;3.50;;;;;;;1.89;100.00;100324.09;5049553;28;20029;-78
2023/04/12 00:12:43;;;;;;;6.32;3.67;;;;;;;1.91;100.00;100320.69;5032925;28;20044;-78
2023/04/12 00:15:09;;;;;;;6.22;3.30;;;;;;;1.91;100.00;100317.19;5048635;28;20091;-78
2023/04/12 00:17:34;;;;;;;8.85;3.22;;;;;;;1.85;100.00;100322.25;5048400;28;20034;-77
2023/04/12 00:20:04;;;;;;;6.03;3.05;;;;;;;1.81;100.00;100304.78;5051603;28;20044;-78
2023/04/12 00:22:29;;;;;;;7.28;3.40;;;;;;;1.72;100.00;100308.03;5034526;28;20117;-78
2023/04/12 00:24:55;;;;;;;8.82;3.60;;;;;;;1.71;100.00;100303.69;5054484;28;20072;-77
2023/04/12 00:27:20;;;;;;;7.05;3.00;;;;;;;1.72;100.00;100301.09;5050264;28;20057;-76
2023/04/12 00:29:45;;;;;;;6.95;3.35;;;;;;;1.69;100.00;100289.75;5054418;28;20041;-78
2023/04/12 00:32:10;;;;;;;7.05;3.35;;;;;;;1.67;100.00;100297.50;5049409;28;20051;-77
2023/04/12 00:34:36;;;;;;;5.72;3.00;;;;;;;1.58;100.00;100289.47;5046405;28;20033;-77
2023/04/12 00:37:01;;;;;;;7.35;3.60;;;;;;;1.60;100.00;100281.69;5053691;28;20049;-77
2023/04/12 00:39:27;;;;;;;5.75;3.13;;;;;;;1.56;100.00;100280.75;5048056;28;20041;-77
2023/04/12 00:41:52;;;;;;;6.78;2.97;;;;;;;1.56;100.00;100283.34;5035060;28;20045;-78
2023/04/12 00:44:17;;;;;;;6.20;3.13;;;;;;;1.58;100.00;100289.47;5051116;28;20036;-78
2023/04/12 00:46:45;;;;;;;9.60;3.95;;;;;;;1.60;100.00;100295.59;5050967;28;20100;-77
2023/04/12 00:49:11;;;;;;;5.75;3.25;;;;;;;1.58;100.00;100291.19;5053960;28;20037;-78
2023/04/12 00:51:38;;;;;;;6.78;3.38;;;;;;;1.58;100.00;100286.88;5050913;28;20105;-76
2023/04/12 00:54:05;;;;;;;8.02;3.50;;;;;;;1.53;100.00;100283.28;5051452;28;20037;-77
2023/04/12 00:56:31;;;;;;;6.13;3.05;;;;;;;1.44;100.00;100288.22;5052093;28;20098;-78
2023/04/12 00:58:57;;;;;;;6.10;3.15;;;;;;;1.35;100.00;100293.19;5051957;28;20036;-77
2023/04/12 01:01:22;;;;;;;7.22;3.25;;;;;;;1.30;100.00;100293.91;5051416;28;20049;-77
2023/04/12 01:03:50;;;;;;;5.63;3.28;;;;;;;1.30;100.00;100300.84;5051820;28;20037;-78
2023/04/12 01:06:31;;;;;;;6.07;3.00;;;;;;;1.22;100.00;100290.25;5034723;28;20032;-77
2023/04/12 01:09:07;;;;;;;7.78;3.30;;;;;;;1.19;100.00;100284.97;5047009;28;20029;-78
2023/04/12 01:11:56;;;;;;;7.22;3.55;;;;;;;1.22;100.00;100277.25;5035039;28;20232;-77
2023/04/12 01:14:32;;;;;;;5.80;2.97;;;;;;;1.24;100.00;100278.16;5032540;28;20395;-77
2023/04/12 01:17:03;;;;;;;8.82;3.22;;;;;;;1.22;100.00;100276.38;5036433;28;20037;-78
2023/04/12 01:19:33;;;;;;;6.80;2.83;;;;;;;1.21;100.00;100267.69;5052040;28;20029;-78
2023/04/12 01:22:31;;;;;;;5.72;3.30;;;;;;;1.17;100.00;100267.56;5051524;28;20123;-78
2023/04/12 01:25:37;;;;;;;6.32;3.13;;;;;;;1.14;100.00;100252.75;5031688;28;20167;-78
2023/04/12 01:28:04;;;;;;;7.97;3.03;;;;;;;1.07;100.00;100249.13;5053223;28;20033;-78
2023/04/12 01:30:31;;;;;;;7.20;3.50;;;;;;;1.08;100.00;100239.59;5034357;28;20040;-78
2023/04/12 01:33:00;;;;;;;5.07;2.88;;;;;;;1.10;100.00;100237.91;5052689;28;20029;-78
2023/04/12 01:35:29;;;;;;;8.85;3.13;;;;;;;1.06;100.00;100234.34;5035435;28;20037;-77
2023/04/12 01:37:56;;;;;;;7.60;3.58;;;;;;;1.04;100.00;100229.94;5031795;28;20392;-78
2023/04/12 01:40:23;;;;;;;7.40;3.72;;;;;;;0.95;100.00;100233.19;5054148;28;20032;-78
2023/04/12 01:42:48;;;;;;;8.98;4.30;;;;;;;0.91;100.00;100235.66;5034271;28;20500;-78
2023/04/12 01:45:13;;;;;;;6.28;3.35;;;;;;;0.81;100.00;100234.50;5053856;28;20037;-77
2023/04/12 01:47:41;;;;;;;7.95;4.68;;;;;;;0.75;100.00;100237.81;5052630;28;20059;-78
2023/04/12 01:50:33;;;;;;;7.82;4.07;;;;;;;0.72;100.00;100229.94;5033751;28;20040;-78
2023/04/12 01:53:12;;;;;;;6.22;3.00;;;;;;;0.65;100.00;100220.19;5021041;28;20030;-77
2023/04/12 01:55:41;;;;;;;10.70;3.58;;;;;;;0.58;100.00;100215.69;5030483;28;20067;-77
2023/04/12 01:58:10;;;;;;;8.05;3.17;;;;;;;0.59;100.00;100218.31;5047917;28;20029;-78
2023/04/12 02:00:36;;;;;;;6.82;3.40;;;;;;;0.59;100.00;100214.84;5034422;28;20033;-78
2023/04/12 02:03:04;;;;;;;6.85;3.58;;;;;;;0.59;100.00;100214.84;5053946;28;20039;-77
2023/04/12 02:05:30;;;;;;;6.00;2.92;;;;;;;0.54;100.00;100211.22;5034564;28;20045;-78
2023/04/12 02:07:56;;;;;;;6.22;3.50;;;;;;;0.54;100.00;100206.03;5051839;28;20040;-78
2023/04/12 02:10:29;;;;;;;6.10;3.20;;;;;;;0.49;100.00;100205.88;5035642;28;20037;-78
2023/04/12 02:12:57;;;;;;;11.25;4.22;;;;;;;0.38;100.00;100205.56;5035209;28;20043;-77
2023/04/12 02:15:22;;;;;;;8.60;3.67;;;;;;;0.32;100.00;100196.75;5033714;28;20040;-78
2023/04/12 02:17:52;;;;;;;7.80;3.63;;;;;;;0.35;100.00;100197.69;5051785;28;20092;-78
2023/04/12 02:20:19;;;;;;;7.90;3.80;;;;;;;0.39;100.00;100191.78;5036387;28;20063;-78
2023/04/12 02:22:45;;;;;;;6.75;3.78;;;;;;;0.40;100.00;100193.53;5033742;28;20035;-77
2023/04/12 02:25:10;;;;;;;8.07;3.38;;;;;;;0.38;100.00;100190.00;5053815;28;20516;-77
2023/04/12 02:27:36;;;;;;;6.82;3.20;;;;;;;0.33;100.00;100188.97;5049639;28;20082;-78
2023/04/12 02:30:03;;;;;;;6.80;2.80;;;;;;;0.27;100.00;100186.22;5036335;28;20033;-78
2023/04/12 02:32:31;;;;;;;6.60;3.42;;;;;;;0.20;100.00;100184.25;5032912;28;20021;-77
2023/04/12 02:34:57;;;;;;;6.57;3.83;;;;;;;0.14;100.00;100173.72;5030352;28;20035;-77
2023/04/12 02:37:26;;;;;;;11.15;4.82;;;;;;;0.15;100.00;100173.75;5031569;28;20034;-78
2023/04/12 02:39:55;;;;;;;9.18;3.78;;;;;;;0.20;100.00;100172.16;5051579;28;20043;-77
2023/04/12 02:42:22;;;;;;;8.57;3.92;;;;;;;0.24;100.00;100170.56;5034537;28;20499;-78
2023/04/12 02:44:47;;;;;;;9.00;3.53;;;;;;;0.21;100.00;100166.16;5031264;28;20029;-78
2023/04/12 02:47:13;;;;;;;7.45;3.85;;;;;;;0.13;100.00;100167.66;5033811;28;20040;-78
2023/04/12 02:49:42;;;;;;;7.20;4.05;;;;;;;0.16;100.00;100153.88;5030780;28;20033;-78
2023/04/12 02:52:09;;;;;;;6.38;4.05;;;;;;;0.16;100.00;100156.47;5030376;28;20029;-77
2023/04/12 02:54:41;;;;;;;6.82;4.03;;;;;;;0.17;100.00;100153.91;5052241;28;20033;-77
2023/04/12 02:57:14;;;;;;;8.77;4.30;;;;;;;0.17;100.00;100155.63;5016339;28;20033;-78
2023/04/12 02:59:43;;;;;;;10.10;4.43;;;;;;;0.16;100.00;100161.66;5031938;28;20060;-77
2023/04/12 03:02:14;;;;;;;8.40;3.97;;;;;;;0.12;100.00;100165.88;5020991;28;20048;-78
2023/04/12 03:04:39;;;;;;;6.90;4.35;;;;;;;0.08;100.00;100171.81;5034173;28;20045;-77
2023/04/12 03:07:09;;;;;;;9.15;5.13;;;;;;;-0.01;100.00;100163.75;5034705;28;20078;-76
2023/04/12 03:09:43;;;;;;;8.13;4.20;;;;;;;-0.04;100.00;100163.66;5036743;28;20033;-78
2023/04/12 03:12:10;;;;;;;11.27;5.03;;;;;;;-0.05;100.00;100152.41;5039286;28;20092;-78
2023/04/12 03:14:42;;;;;;;;;;;;;;;-0.05;100.00;100142.03;5034962;28;20043;-78
2023/04/12 03:17:08;;;;;;;7.23;4.73;;;;;;;-0.06;100.00;100142.84;5051584;28;19956;-78
2023/04/12 03:19:35;;;;;;;11.15;5.65;;;;;;;-0.04;100.00;100137.72;5033646;28;20070;-78
2023/04/12 03:22:03;;;;;;;12.37;6.27;;;;;;;-0.10;100.00;100135.81;5032824;28;20566;-78
2023/04/12 03:24:33;;;;;;;12.02;4.93;;;;;;;-0.10;100.00;100135.81;5038126;28;20037;-78
2023/04/12 03:27:04;;;;;;;8.60;4.27;;;;;;;-0.07;100.00;100132.44;5029814;28;20115;-79
2023/04/12 03:29:32;;;;;;;8.40;4.78;;;;;;;-0.08;100.00;100126.38;5034837;28;20055;-78
2023/04/12 03:32:00;;;;;;;9.38;4.40;;;;;;;-0.07;100.00;100128.13;5035915;28;20120;-78
2023/04/12 03:34:34;;;;;;;8.13;4.67;;;;;;;-0.08;100.00;100128.97;5033112;28;20026;-78
2023/04/12 03:37:06;;;;;;;9.10;4.47;;;;;;;-0.07;100.00;100122.94;5026989;28;20060;-78
2023/04/12 03:39:37;;;;;;;6.25;3.50;;;;;;;-0.06;100.00;100129.88;5034798;28;20037;-79
2023/04/12 03:42:05;;;;;;;7.40;3.80;;;;;;;-0.14;100.00;100127.88;5035905;28;20038;-76
2023/04/12 03:44:32;;;;;;;8.07;4.32;;;;;;;-0.24;100.00;100117.25;5038312;28;20086;-78
2023/04/12 03:47:00;;;;;;;9.30;3.93;;;;;;;-0.32;100.00;100116.09;5035144;28;20100;-78
2023/04/12 03:49:32;;;;;;;10.07;4.97;;;;;;;-0.35;100.00;100113.41;5029198;28;20092;-78
2023/04/12 03:51:58;;;;;;;8.00;4.47;;;;;;;-0.32;100.00;100112.63;5031664;28;20029;-78
2023/04/12 03:54:24;;;;;;;7.20;4.00;;;;;;;-0.33;100.00;100110.88;5039466;28;20122;-78
2023/04/12 03:56:56;;;;;;;7.63;4.77;;;;;;;-0.34;100.00;100104.81;5033891;28;20060;-79
2023/04/12 03:59:28;;;;;;;12.17;5.53;;;;;;;-0.27;100.00;100108.47;5022992;28;20276;-79
2023/04/12 04:01:54;;;;;;;9.20;4.50;;;;;;;-0.18;100.00;100100.06;5044039;28;20099;-79
2023/04/12 04:04:24;;;;;;;8.47;5.00;;;;;;;-0.11;100.00;100107.22;5022746;28;20029;-79
2023/04/12 04:06:53;;;;;;;9.73;4.22;;;;;;;-0.09;100.00;100098.66;5039258;28;20071;-79
2023/04/12 04:09:19;;;;;;;9.03;5.13;;;;;;;-0.10;100.00;100096.91;5042002;28;20040;-78
2023/04/12 04:11:46;;;;;;;11.70;5.03;;;;;;;-0.10;100.00;100096.91;5040715;28;20120;-79
2023/04/12 04:14:12;;;;;;;10.73;4.67;;;;;;;-0.08;100.00;100090.06;5037905;28;20033;-78
2023/04/12 04:16:37;;;;;;;8.93;4.47;;;;;;;-0.07;100.00;100076.22;5039011;28;20076;-78
2023/04/12 04:19:05;;;;;;;8.83;4.80;;;;;;;-0.02;100.00;100079.84;5050190;28;20029;-78
2023/04/12 04:21:31;;;;;;;9.30;4.43;;;;;;;0.04;100.00;100084.31;5034094;28;20044;-78
2023/04/12 04:24:01;;;;;;;7.73;4.20;;;;;;;0.09;100.00;100077.56;5046891;28;20499;-77
2023/04/12 04:26:33;;;;;;;7.60;4.85;;;;;;;0.10;100.00;100079.31;5041739;28;20064;-78
2023/04/12 04:29:18;;;;;;;12.60;5.57;;;;;;;0.09;100.00;100074.09;5036102;28;20029;-78
2023/04/12 04:31:44;;;;;;;14.98;8.25;;;;;;;0.12;100.00;100066.38;5034883;28;20095;-78
2023/04/12 04:34:12;;;;;;;23.52;9.57;;;;;;;0.15;100.00;100069.06;5037379;28;20036;-77
2023/04/12 04:36:42;;;;;;;11.80;6.57;;;;;;;0.21;100.00;100061.47;5035238;28;20025;-78
2023/04/12 04:39:08;;;;;;;10.37;5.67;;;;;;;0.25;100.00;100055.50;5038087;28;20116;-78
2023/04/12 04:41:38;;;;;;;9.70;5.13;;;;;;;0.28;100.00;100058.19;5030173;28;20952;-78
2023/04/12 04:44:09;;;;;;;9.40;4.43;;;;;;;0.34;100.00;100053.19;5035774;28;20036;-77
2023/04/12 04:46:38;;;;;;;8.63;4.78;;;;;;;0.39;100.00;100050.69;5038346;28;20028;-78
2023/04/12 04:49:04;;;;;;;10.25;4.78;;;;;;;0.45;100.00;100056.06;5013634;28;20042;-78
2023/04/12 04:51:29;;;;;;;8.70;4.50;;;;;;;0.51;100.00;100061.41;5053631;28;20036;-78
2023/04/12 04:53:57;;;;;;;7.87;4.50;;;;;;;0.55;100.00;100058.06;5037068;28;20096;-78
2023/04/12 04:56:23;;;;;;;9.55;4.50;;;;;;;0.62;100.00;100064.28;5041992;28;20064;-78
2023/04/12 04:58:50;;;;;;;10.68;4.82;;;;;;;0.71;100.00;100069.75;5038653;28;20395;-78
2023/04/12 05:01:17;;;;;;;9.48;4.65;;;;;;;0.79;100.00;100067.34;5032671;28;20159;-78
2023/04/12 05:03:48;;;;;;;10.45;5.22;;;;;;;0.83;100.00;100071.75;5037639;28;20029;-78
2023/04/12 05:06:16;;;;;;;13.60;6.50;;;;;;;0.90;100.00;100063.28;5037956;28;20033;-78
2023/04/12 05:08:41;;;;;;;11.88;6.18;;;;;;;0.98;100.00;100058.28;5022045;28;20033;-77
2023/04/12 05:11:07;;;;;;;15.13;7.28;;;;;;;1.10;100.00;100058.56;5044132;28;20140;-77
2023/04/12 05:13:32;;;;;;;12.95;6.40;;;;;;;1.18;100.00;100064.84;5042937;28;20029;-78
2023/04/12 05:15:58;;;;;;;15.95;7.13;;;;;;;1.23;100.00;100064.94;5040632;28;20037;-78
2023/04/12 05:18:23;;;;;;;12.55;5.47;;;;;;;1.39;100.00;100055.78;5035276;28;20040;-78
2023/04/12 05:20:49;;;;;;;13.20;6.75;;;;;;;1.53;100.00;100044.88;5039873;28;20043;-78
2023/04/12 05:23:14;;;;;;;14.80;6.90;;;;;;;1.67;100.00;100047.75;5037361;28;20030;-79
2023/04/12 05:25:47;;;;;;;16.25;7.20;;;;;;;1.84;100.00;100045.53;5057383;28;20041;-78
2023/04/12 05:28:14;;;;;;;13.68;6.20;;;;;;;1.94;100.00;100033.59;5018772;28;20037;-78
2023/04/12 05:30:40;;;;;;;13.32;6.28;;;;;;;2.03;100.00;100022.50;5042093;28;20467;-77
2023/04/12 05:33:07;;;;;;;12.43;6.20;;;;;;;2.11;100.00;100019.19;5039515;28;20048;-78
2023/04/12 05:35:35;;;;;;;14.98;5.82;;;;;;;2.23;100.00;100017.66;5035402;28;20029;-78
2023/04/12 05:38:01;;;;;;;11.90;5.60;;;;;;;2.32;100.00;100018.72;5040289;28;20036;-78
2023/04/12 05:40:30;;;;;;;10.63;5.80;;;;;;;2.42;100.00;100019.78;5059584;22;20115;-72
2023/04/12 05:42:56;;;;;;;10.05;4.95;;;;;;;2.52;100.00;100011.28;5047757;28;20571;-72
2023/04/12 05:45:23;;;;;;;10.15;4.63;;;;;;;2.61;100.00;100003.63;5033087;28;20041;-72
2023/04/12 05:47:48;;;;;;;10.82;4.53;;;;;;;2.72;100.00;100001.19;5044191;28;20045;-72
2023/04/12 05:50:13;;;;;;;9.30;4.75;;;;;;;2.83;100.00;99988.38;5026938;28;20037;-72
2023/04/12 05:52:39;;;;;;;8.23;4.50;;;;;;;2.90;100.00;99982.38;5032092;28;20026;-72
2023/04/12 05:55:06;;;;;;;7.50;4.63;;;;;;;2.93;100.00;99982.44;5020339;28;20039;-72
2023/04/12 05:57:33;;;;;;;7.32;3.65;;;;;;;3.03;100.00;99976.50;5005586;28;20026;-72
2023/04/12 05:59:59;;;;;;;6.35;3.50;;;;;;;3.15;100.00;99981.06;5027720;28;20551;-72
2023/04/12 06:02:24;;;;;;;8.48;3.47;;;;;;;3.27;100.00;99969.91;5028905;28;20045;-72
2023/04/12 06:04:51;;;;;;;10.18;4.47;;;;;;;3.39;100.00;99972.69;5002661;28;20022;-72
2023/04/12 06:07:18;;;;;;;9.57;3.10;;;;;;;3.49;100.00;99968.50;5019147;28;20029;-72
2023/04/12 06:09:43;;;;;;;6.95;3.53;;;;;;;3.60;100.00;99956.44;5008767;28;20037;-72
2023/04/12 06:12:09;;;;;;;6.00;3.47;;;;;;;3.67;100.00;99952.19;5006414;28;20033;-72
2023/04/12 06:14:35;;;;;;;6.88;3.47;;;;;;;3.74;100.00;99960.09;5006393;28;20416;-72
2023/04/12 06:17:00;;;;;;;6.65;3.25;;;;;;;3.86;100.00;99956.78;5013665;28;20068;-72
2023/04/12 06:19:26;;;;;;;5.95;2.88;;;;;;;3.98;100.00;99947.31;5020654;28;20095;-72
2023/04/12 06:21:51;;;;;;;5.88;3.28;;;;;;;4.09;100.00;99941.38;5016673;28;20038;-72
2023/04/12 06:24:18;;;;;;;6.22;3.00;;;;;;;4.18;100.00;99935.34;5012889;28;20531;-72
2023/04/12 06:26:46;;;;;;;9.43;3.13;;;;;;;4.32;100.00;99920.72;5004680;28;20508;-72
2023/04/12 06:29:12;;;;;;;6.32;3.38;;;;;;;4.47;100.00;99924.31;5003836;28;20042;-72
2023/04/12 06:31:37;;;;;;;5.88;3.03;;;;;;;4.53;100.00;99926.97;5006019;28;20117;-72
2023/04/12 06:34:03;;;;;;;8.60;3.25;;;;;;;4.60;100.00;99913.09;5004012;28;20048;-72
2023/04/12 06:36:28;;;;;;;5.93;2.80;;;;;;;4.71;100.00;99916.66;5020303;28;20075;-72
2023/04/12 06:38:53;;;;;;;8.43;3.70;;;;;;;4.84;100.00;99908.03;5029828;28;20491;-72
2023/04/12 06:41:19;;;;;;;7.00;3.25;;;;;;;5.00;100.00;99897.69;5026375;28;20044;-72
2023/04/12 06:43:44;;;;;;;8.43;3.05;;;;;;;5.14;100.00;99901.28;5027262;28;20041;-72
2023/04/12 06:46:10;;;;;;;9.73;3.20;;;;;;;5.27;100.00;99899.59;5023560;28;20124;-72
2023/04/12 06:48:35;;;;;;;6.38;3.33;;;;;;;5.40;100.00;99893.56;5027570;28;20055;-72
2023/04/12 06:51:00;;;;;;;7.35;2.65;;;;;;;5.53;100.00;99898.81;5026072;28;20033;-72
2023/04/12 06:53:26;;;;;;;6.00;2.45;;;;;;;5.68;100.00;99888.41;5026817;28;20049;-72
2023/04/12 06:55:52;;;;;;;7.38;2.58;;;;;;;5.80;100.00;99885.84;5026631;28;20045;-72
2023/04/12 06:58:18;;;;;;;7.55;4.07;;;;;;;5.92;100.00;99885.00;5020502;28;20053;-72
2023/04/12 07:00:43;;;;;;;10.45;5.85;;;;;;;6.05;100.00;99872.84;5022060;28;20037;-72
2023/04/12 07:03:09;;;;;;;9.88;5.18;;;;;;;6.20;100.00;99867.63;5021893;28;20124;-72
2023/04/12 07:05:38;;;;;;;9.00;5.47;;;;;;;6.37;100.00;99865.03;5023108;28;20029;-72
2023/04/12 07:08:04;;;;;;;10.80;5.70;;;;;;;6.51;100.00;99865.88;5019930;28;20091;-72
2023/04/12 07:10:29;;;;;;;7.72;3.65;;;;;;;6.65;100.00;99859.75;5023729;28;20116;-73
2023/04/12 07:12:56;;;;;;;6.93;3.65;;;;;;;6.86;100.00;99864.09;5022194;28;20032;-72
2023/04/12 07:15:21;;;;;;;9.50;4.45;;;;;;;7.01;100.00;99859.69;5019194;28;20045;-72
2023/04/12 07:17:46;;;;;;;7.20;3.53;;;;;;;7.18;100.00;99862.28;5023012;28;20083;-72
2023/04/12 07:20:12;;;;;;;6.15;2.40;;;;;;;7.34;100.00;99852.59;5023245;28;20531;-72
2023/04/12 07:22:37;;;;;;;5.05;1.85;;;;;;;7.49;100.00;99848.16;5027477;28;20033;-73
2023/04/12 07:25:05;;;;;;;6.50;2.78;;;;;;;7.62;100.00;99841.97;5028837;28;20063;-72
2023/04/12 07:27:30;;;;;;;4.38;1.88;;;;;;;7.73;100.00;99834.00;5023559;28;20033;-72
2023/04/12 07:29:56;;;;;;;6.50;2.65;;;;;;;7.89;100.00;99836.56;5030236;28;20037;-72
2023/04/12 07:32:22;;;;;;;5.32;2.15;;;;;;;8.06;100.00;99832.94;5028877;28;20129;-72
2023/04/12 07:34:47;;;;;;;8.52;2.28;;;;;;;8.21;99.78;99829.34;5032744;28;20167;-73
2023/04/12 07:37:13;;;;;;;5.20;1.92;;;;;;;8.35;97.24;99825.69;5024320;28;20033;-73
2023/04/12 07:39:39;;;;;;;7.50;2.13;;;;;;;8.48;96.14;99817.75;5027524;28;20524;-73
2023/04/12 07:42:05;;;;;;;4.43;1.45;;;;;;;8.63;94.83;99814.97;5026751;28;20033;-72
2023/04/12 07:44:32;;;;;;;5.63;1.88;;;;;;;8.78;92.99;99812.19;5032197;28;20046;-72
2023/04/12 07:46:58;;;;;;;5.65;1.73;;;;;;;8.92;91.66;99811.16;5028348;28;20072;-73
2023/04/12 07:49:23;;;;;;;5.38;1.70;;;;;;;9.04;91.09;99808.41;5024446;28;20072;-73
2023/04/12 07:51:48;;;;;;;8.60;2.28;;;;;;;9.17;90.22;99795.97;5026504;28;20097;-73
2023/04/12 07:54:14;;;;;;;4.45;1.63;;;;;;;9.28;88.69;99795.84;5029001;28;20041;-72
2023/04/12 07:56:39;;;;;;;4.93;2.20;;;;;;;9.39;87.47;99792.16;5026363;28;20065;-72
2023/04/12 07:59:05;;;;;;;4.93;1.88;;;;;;;9.56;86.13;99788.41;5026466;28;20088;-72
2023/04/12 08:01:30;;;;;;;8.85;2.20;;;;;;;9.70;84.83;99780.34;5023849;28;20833;-73
2023/04/12 08:03:56;;;;;;;4.40;1.50;;;;;;;9.80;83.46;99774.91;5025983;28;20488;-73
2023/04/12 08:06:21;;;;;;;6.35;1.70;;;;;;;9.93;81.49;99767.69;5025929;28;20471;-72
2023/04/12 08:08:46;;;;;;;5.25;1.60;;;;;;;10.03;81.08;99763.13;5025290;28;20434;-72
2023/04/12 08:11:11;;;;;;;6.65;2.03;;;;;;;10.19;77.19;99758.47;5023435;28;20635;-72
2023/04/12 08:13:37;;;;;;;3.72;1.55;;;;;;;10.27;74.58;99759.19;5025451;28;20156;-72
2023/04/12 08:16:02;;;;;;;3.53;1.25;;;;;;;10.35;69.89;99749.44;5028220;28;20639;-72
2023/04/12 08:18:28;;;;;;;5.82;1.25;;;;;;;10.46;72.06;99750.13;5023252;28;20527;-72
2023/04/12 08:20:57;;;;;;;3.75;1.30;;;;;;;10.58;71.29;99746.38;5025201;28;20048;-72
2023/04/12 08:23:22;;;;;;;6.00;1.40;;;;;;;10.66;71.55;99735.66;5024937;28;20044;-73
2023/04/12 08:25:48;;;;;;;3.47;1.33;;;;;;;10.74;70.74;99733.75;5026357;28;20034;-73
2023/04/12 08:28:13;;;;;;;4.60;1.40;;;;;;;10.80;67.88;99736.28;5022307;28;20034;-73
2023/04/12 08:30:38;;;;;;;3.60;1.25;;;;;;;10.91;67.98;99733.44;5025722;28;20047;-73
2023/04/12 08:33:04;;;;;;;3.75;1.30;;;;;;;11.05;68.69;99728.72;5026070;28;20033;-73
2023/04/12 08:35:29;;;;;;;3.00;1.20;;;;;;;11.08;64.75;99719.88;5023437;28;20038;-72
2023/04/12 08:37:55;;;;;;;4.32;1.40;;;;;;;11.15;65.19;99726.75;5025701;28;20106;-73
2023/04/12 08:40:20;;;;;;;4.18;1.42;;;;;;;11.32;67.94;99726.41;5020103;28;20046;-73
2023/04/12 08:42:46;;;;;;;5.40;1.42;;;;;;;11.39;67.18;99726.22;5026113;28;20042;-73
2023/04/12 08:45:12;;;;;;;6.55;1.55;;;;;;;11.49;64.81;99724.25;5027496;28;20033;-73
2023/04/12 08:47:40;;;;;;;4.25;1.40;;;;;;;11.59;64.45;99720.50;5022754;28;20033;-73
2023/04/12 08:50:08;;;;;;;4.10;1.15;;;;;;;11.69;64.09;99713.22;5025551;28;20405;-72
2023/04/12 08:52:35;;;;;;;4.50;1.13;;;;;;;11.79;64.30;99712.09;5024635;28;20037;-73
2023/04/12 08:55:05;;;;;;;5.63;1.75;;;;;;;11.92;64.76;99710.06;5025719;28;20065;-73
2023/04/12 08:57:33;;;;;;;6.07;2.00;;;;;;;12.03;65.99;99707.16;5023122;28;20033;-73
2023/04/12 09:00:00;;;;;;;6.80;1.73;;;;;;;12.15;65.44;99696.22;5024323;28;20132;-73
2023/04/12 09:02:26;;;;;;;3.67;1.30;;;;;;;12.08;62.05;99702.59;5021959;28;20033;-73
2023/04/12 09:04:52;;;;;;;4.68;1.10;;;;;;;12.03;59.46;99692.13;5028867;28;20566;-73
2023/04/12 09:07:18;;;;;;;4.00;1.10;;;;;;;12.06;61.33;99685.91;5021885;28;20053;-73
2023/04/12 09:09:45;;;;;;;4.57;1.13;;;;;;;12.10;59.85;99687.53;5024981;28;20041;-73
2023/04/12 09:12:11;;;;;;;4.35;1.05;;;;;;;12.16;59.36;99679.47;5025285;28;20026;-73
2023/04/12 09:14:38;;;;;;;4.00;1.15;;;;;;;12.18;59.04;99679.41;5022897;28;20034;-73
2023/04/12 09:17:04;;;;;;;5.93;1.40;;;;;;;12.25;59.50;99667.75;5024650;28;20116;-73
2023/04/12 09:19:31;;;;;;;4.60;1.40;;;;;;;12.37;59.65;99670.09;5020997;28;20106;-73
2023/04/12 09:21:57;;;;;;;2.72;0.95;;;;;;;12.45;59.98;99656.66;5030693;28;20130;-73
2023/04/12 09:24:25;;;;;;;3.97;1.30;;;;;;;12.60;61.15;99650.03;5028232;28;20088;-73
2023/04/12 09:27:02;;;;;;;6.00;1.75;;;;;;;12.69;60.08;99640.06;5026229;28;20130;-73
2023/04/12 09:29:27;;;;;;;3.72;1.33;;;;;;;12.77;61.28;99641.63;5025209;28;20539;-73
2023/04/12 09:31:58;;;;;;;4.82;1.13;;;;;;;12.97;61.49;99630.41;5025718;28;20030;-73
2023/04/12 09:34:24;;;;;;;4.77;1.43;;;;;;;13.00;59.16;99623.28;5024759;28;20171;-73
2023/04/12 09:36:49;;;;;;;3.92;1.40;;;;;;;13.14;61.78;99638.72;5031360;28;20116;-73
2023/04/12 09:39:14;;;;;;;5.47;1.50;;;;;;;13.30;60.51;99623.25;5029300;28;20056;-73
2023/04/12 09:41:40;;;;;;;5.20;1.33;;;;;;;13.53;61.18;99620.72;5025679;28;20030;-73
2023/04/12 09:44:05;;;;;;;4.72;1.45;;;;;;;13.61;59.75;99609.00;5028319;28;20087;-73
2023/04/12 09:46:31;;;;;;;5.72;1.05;;;;;;;13.57;57.15;99617.06;5025639;28;20049;-73
2023/04/12 09:48:58;;;;;;;8.45;2.97;;;;;;;13.56;56.85;99610.00;5021124;28;20049;-73
2023/04/12 09:51:28;;;;;;;7.43;2.08;;;;;;;13.72;56.36;99607.72;5028710;28;20029;-73
2023/04/12 09:53:58;;;;;;;7.20;2.72;;;;;;;13.80;57.45;99595.06;5030631;28;20033;-73
2023/04/12 09:56:26;;;;;;;6.85;2.30;;;;;;;13.99;58.37;99589.13;5026478;28;20475;-72
2023/04/12 09:58:52;;;;;;;4.95;1.30;;;;;;;14.03;56.59;99591.63;5005458;28;20041;-73
2023/04/12 10:01:19;;;;;;;4.07;1.38;;;;;;;14.09;54.53;99579.06;5021286;28;20040;-73
2023/04/12 10:03:45;;;;;;;4.82;1.40;;;;;;;14.05;53.18;99567.69;5028205;28;20388;-73
2023/04/12 10:06:11;;;;;;;7.20;1.42;;;;;;;14.02;54.75;99566.03;5031228;28;20033;-73
2023/04/12 10:08:37;;;;;;;3.85;1.40;;;;;;;14.14;56.30;99556.72;5021150;28;20394;-73
2023/04/12 10:11:03;;;;;;;4.97;1.33;;;;;;;14.17;54.92;99550.44;5024222;28;20091;-73
2023/04/12 10:13:31;;;;;;;7.13;1.20;;;;;;;14.22;54.85;99545.84;5022922;28;20096;-73
2023/04/12 10:15:59;;;;;;;5.70;1.92;;;;;;;14.29;53.96;99539.41;5027352;28;20034;-73
2023/04/12 10:18:26;;;;;;;6.18;1.50;;;;;;;14.33;53.13;99533.06;5024204;28;20083;-73
2023/04/12 10:20:52;;;;;;;2.80;1.10;;;;;;;14.51;53.98;99520.00;5020993;28;20451;-73
2023/04/12 10:23:18;;;;;;;4.40;1.13;;;;;;;14.79;52.63;99514.50;5011461;28;20087;-73
2023/04/12 10:25:47;;;;;;;5.28;1.50;;;;;;;15.07;52.07;99514.28;5025121;28;20412;-73
2023/04/12 10:28:17;;;;;;;4.50;1.35;;;;;;;15.32;50.99;99509.66;5025628;28;20099;-73
2023/04/12 10:30:43;;;;;;;3.90;1.40;;;;;;;15.56;50.38;99499.81;5026054;28;20044;-74
2023/04/12 10:33:08;;;;;;;5.22;1.30;;;;;;;15.95;49.50;99496.31;5031174;28;20037;-73
2023/04/12 10:35:53;;;;;;;4.38;1.20;;;;;;;16.06;46.09;99490.56;5021762;28;20547;-74
2023/04/12 10:38:18;;;;;;;4.53;0.93;;;;;;;15.91;46.07;99480.59;5027252;28;20476;-73
2023/04/12 10:41:07;;;;;;;4.90;1.45;;;;;;;15.75;45.03;99483.94;5021206;28;20041;-74
2023/04/12 10:43:33;;;;;;;4.18;1.20;;;;;;;15.29;47.03;99477.88;5022374;28;20041;-73
2023/04/12 10:46:03;;;;;;;7.50;1.45;;;;;;;15.12;45.44;99478.63;5023179;28;20038;-73
2023/04/12 10:48:32;;;;;;;6.93;1.40;;;;;;;15.07;46.16;99469.97;5023658;28;20100;-73
2023/04/12 10:51:27;;;;;;;5.05;1.30;;;;;;;15.19;45.58;99478.34;5019952;28;20030;-73
2023/04/12 10:54:18;;;;;;;5.90;1.42;;;;;;;15.18;46.43;99461.53;5013898;28;20432;-73
2023/04/12 10:56:44;;;;;;;4.95;1.48;;;;;;;15.26;43.40;99459.41;5025709;28;20057;-73
2023/04/12 10:59:15;;;;;;;4.30;1.30;;;;;;;15.14;45.22;99451.94;5002538;28;20034;-73
2023/04/12 11:02:06;;;;;;;4.20;1.15;;;;;;;15.01;46.17;99453.41;5020156;28;20029;-73
2023/04/12 11:04:31;;;;;;;3.92;1.13;;;;;;;14.90;45.68;99457.34;5025254;28;20076;-73
2023/04/12 11:07:10;;;;;;;4.93;1.30;;;;;;;15.39;47.15;99448.28;5005525;28;20400;-73
2023/04/12 11:09:47;;;;;;;8.10;1.65;;;;;;;15.76;47.36;99443.09;5021478;28;20037;-73
2023/04/12 11:12:27;;;;;;;3.80;1.10;;;;;;;15.54;43.82;99436.97;5007146;28;20030;-73
2023/04/12 11:14:59;;;;;;;4.80;1.27;;;;;;;15.36;43.92;99430.66;5023491;28;20061;-73
2023/04/12 11:17:26;;;;;;;3.53;1.10;;;;;;;15.72;43.69;99430.00;5005942;28;20037;-73
2023/04/12 11:19:57;;;;;;;4.60;0.90;;;;;;;16.23;45.60;99425.03;5021031;28;20688;-73
2023/04/12 11:22:26;;;;;;;6.60;1.05;;;;;;;16.18;44.70;99428.75;5021875;28;20046;-73
2023/04/12 11:24:53;;;;;;;3.92;1.10;;;;;;;15.98;43.62;99426.13;5023830;28;20044;-73
2023/04/12 11:27:20;;;;;;;6.90;1.52;;;;;;;15.70;43.33;99426.56;5026342;28;20068;-73
2023/04/12 11:29:54;;;;;;;3.17;1.00;;;;;;;15.32;43.71;99416.63;5022851;28;20060;-73